Time;durP1;ratioP1;P1;durP2;ratioP2;P2;SDS_P1;SDS_P2;PMS_P1;PMS_P2;Temp;Humidity;BMP_temperature;BMP_pressure;BME280_temperature;BME280_humidity;BME280_pressure;Samples;Min_cycle;Max_cycle;Signal;HPM_P1;HPM_P2
2021/09/10 00:01:35;;;;;;;20.80;10.80;;;;;;;10.62;78.18;101467.50;1828990;78;21106;-66
2021/09/10 00:04:04;;;;;;;24.18;18.07;;;;;;;10.62;77.89;101467.92;1828946;78;21046;-67
2021/09/10 00:06:33;;;;;;;29.35;22.98;;;;;;;10.61;77.66;101469.70;1829069;78;21038;-66
2021/09/10 00:09:02;;;;;;;24.45;20.27;;;;;;;10.60;77.68;101471.06;1829070;78;21571;-67
2021/09/10 00:11:31;;;;;;;27.80;17.20;;;;;;;10.59;77.51;101466.72;1829211;78;21062;-66
2021/09/10 00:14:00;;;;;;;23.47;13.30;;;;;;;10.56;77.35;101465.01;1829083;78;21075;-66
2021/09/10 00:16:29;;;;;;;15.13;9.28;;;;;;;10.51;77.34;101462.98;1829008;78;21498;-66
2021/09/10 00:18:58;;;;;;;18.87;9.55;;;;;;;10.46;78.27;101466.61;1829085;78;21019;-66
2021/09/10 00:21:27;;;;;;;14.78;7.83;;;;;;;10.44;78.00;101466.69;1829090;78;21171;-66
2021/09/10 00:23:56;;;;;;;18.05;7.35;;;;;;;10.41;77.71;101464.13;1829077;78;21122;-66
2021/09/10 00:26:24;;;;;;;17.12;7.30;;;;;;;10.37;77.74;101458.53;1829085;78;21474;-66
2021/09/10 00:28:53;;;;;;;14.73;7.72;;;;;;;10.31;77.99;101455.61;1829054;78;21066;-66
2021/09/10 00:31:22;;;;;;;13.95;7.55;;;;;;;10.26;78.32;101457.46;1829019;78;21140;-66
2021/09/10 00:33:51;;;;;;;13.83;7.53;;;;;;;10.26;78.68;101452.20;1829060;78;21062;-66
2021/09/10 00:36:20;;;;;;;18.12;8.78;;;;;;;10.27;78.56;101452.59;1829021;78;21068;-66
2021/09/10 00:38:49;;;;;;;12.23;6.72;;;;;;;10.24;78.50;101453.55;1829068;78;21018;-65
2021/09/10 00:41:17;;;;;;;14.95;6.45;;;;;;;10.19;78.63;101449.31;1829098;78;21058;-66
2021/09/10 00:43:46;;;;;;;23.00;7.15;;;;;;;10.17;78.53;101449.80;1828976;78;21062;-66
2021/09/10 00:46:16;;;;;;;12.07;7.03;;;;;;;10.15;78.66;101445.89;1829060;78;21205;-66
2021/09/10 00:48:45;;;;;;;14.00;6.30;;;;;;;10.12;78.78;101449.05;1829195;78;21324;-66
2021/09/10 00:51:14;;;;;;;16.87;6.37;;;;;;;10.11;78.50;101443.40;1829058;77;21063;-66
2021/09/10 00:53:42;;;;;;;14.70;5.70;;;;;;;10.11;78.48;101453.92;1828990;78;21481;-66
2021/09/10 00:56:11;;;;;;;17.87;6.20;;;;;;;10.09;78.47;101451.33;1829058;78;21067;-65
2021/09/10 00:58:40;;;;;;;24.15;6.75;;;;;;;10.07;78.31;101443.93;1829072;78;21062;-65
2021/09/10 01:01:09;;;;;;;11.43;5.40;;;;;;;10.05;78.19;101448.34;1829212;78;21046;-66
2021/09/10 01:03:39;;;;;;;17.95;5.97;;;;;;;10.01;78.29;101447.58;1828939;78;21497;-65
2021/09/10 01:06:09;;;;;;;12.07;5.67;;;;;;;9.96;78.33;101448.56;1829178;78;21485;-65
2021/09/10 01:08:41;;;;;;;19.35;5.87;;;;;;;9.93;78.36;101450.84;1828983;78;21062;-67
2021/09/10 01:11:10;;;;;;;16.42;4.95;;;;;;;9.91;78.22;101450.02;1829040;78;21082;-66
2021/09/10 01:13:40;;;;;;;14.53;5.65;;;;;;;9.88;78.31;101444.82;1829033;78;21497;-65
2021/09/10 01:16:08;;;;;;;17.65;5.85;;;;;;;9.85;78.39;101443.60;1829050;78;21079;-65
2021/09/10 01:18:37;;;;;;;11.53;4.80;;;;;;;9.81;78.49;101444.13;1829180;78;21160;-64
2021/09/10 01:21:06;;;;;;;10.23;5.75;;;;;;;9.73;78.68;101441.27;1829071;78;21120;-65
2021/09/10 01:23:35;;;;;;;16.32;5.78;;;;;;;9.65;78.84;101443.63;1829073;78;21119;-64
2021/09/10 01:26:04;;;;;;;15.58;5.47;;;;;;;9.59;79.21;101440.27;1829067;78;21023;-64
2021/09/10 01:28:32;;;;;;;9.33;5.53;;;;;;;9.59;79.17;101435.89;1829183;78;21054;-64
2021/09/10 01:31:01;;;;;;;19.40;5.22;;;;;;;9.60;79.11;101436.29;1829197;78;21050;-64
2021/09/10 01:33:30;;;;;;;13.48;5.75;;;;;;;9.60;79.27;101442.00;1829060;78;21049;-64
2021/09/10 01:35:59;;;;;;;12.88;5.70;;;;;;;9.57;79.37;101441.64;1829026;78;21548;-64
2021/09/10 01:38:28;;;;;;;12.65;5.30;;;;;;;9.51;79.62;101435.19;1829030;78;21145;-64
2021/09/10 01:40:57;;;;;;;11.20;5.83;;;;;;;9.50;79.80;101437.42;1829069;78;21144;-64
2021/09/10 01:43:25;;;;;;;13.85;5.05;;;;;;;9.49;79.80;101437.45;1829060;78;21175;-64
2021/09/10 01:45:54;;;;;;;11.20;5.83;;;;;;;9.51;79.44;101437.82;1829245;78;21054;-64
2021/09/10 01:48:23;;;;;;;19.17;6.03;;;;;;;9.51;79.25;101435.19;1828962;78;21548;-64
2021/09/10 01:50:51;;;;;;;15.38;7.97;;;;;;;9.51;79.11;101429.94;1829287;78;21132;-64
2021/09/10 01:53:21;;;;;;;13.78;6.95;;;;;;;9.51;79.04;101427.30;1846953;77;21169;-64
2021/09/10 01:55:50;;;;;;;11.90;6.42;;;;;;;9.49;78.99;101430.42;1848974;77;21152;-64
2021/09/10 01:58:18;;;;;;;18.82;7.00;;;;;;;9.47;79.17;101433.08;1848985;77;21078;-64
2021/09/10 02:00:48;;;;;;;13.00;6.90;;;;;;;9.45;79.03;101424.38;1848888;77;21082;-65
2021/09/10 02:03:17;;;;;;;11.75;6.10;;;;;;;9.44;79.09;101428.34;1848979;77;21583;-64
2021/09/10 02:05:45;;;;;;;9.45;5.95;;;;;;;9.42;79.21;101419.63;1848889;77;21102;-65
2021/09/10 02:08:14;;;;;;;13.65;6.12;;;;;;;9.40;79.34;101420.13;1849206;77;21449;-64
2021/09/10 02:10:43;;;;;;;10.90;5.08;;;;;;;9.39;79.32;101419.73;1849020;77;21063;-64
2021/09/10 02:13:11;;;;;;;9.60;5.37;;;;;;;9.37;79.24;101415.81;1848929;77;21066;-65
2021/09/10 02:15:40;;;;;;;14.10;6.17;;;;;;;9.36;79.14;101418.47;1848976;77;21089;-65
2021/09/10 02:18:09;;;;;;;13.58;6.33;;;;;;;9.35;78.99;101418.05;1848986;77;21050;-64
2021/09/10 02:20:38;;;;;;;12.82;6.72;;;;;;;9.31;78.99;101409.37;1848966;77;21541;-64
2021/09/10 02:23:07;;;;;;;13.93;7.08;;;;;;;9.30;79.07;101416.85;1848979;77;21141;-65
2021/09/10 02:25:35;;;;;;;16.23;8.58;;;;;;;9.27;79.40;101409.03;1848965;77;21184;-64
2021/09/10 02:28:08;;;;;;;14.95;8.08;;;;;;;9.26;79.40;101413.89;1849008;77;21050;-64
2021/09/10 02:30:35;;;;;;;15.38;7.00;;;;;;;9.24;79.41;101407.77;1848479;77;21039;-64
2021/09/10 02:33:04;;;;;;;18.40;10.13;;;;;;;9.23;79.30;101412.17;1848880;77;21501;-65
2021/09/10 02:35:33;;;;;;;28.30;13.18;;;;;;;9.20;79.29;101412.27;1848935;77;21050;-65
2021/09/10 02:38:01;;;;;;;23.67;10.93;;;;;;;9.19;79.43;101409.20;1848966;77;21144;-64
2021/09/10 02:40:30;;;;;;;18.77;9.25;;;;;;;9.19;79.46;101414.47;1849014;77;21066;-65
2021/09/10 02:42:59;;;;;;;18.32;9.30;;;;;;;9.17;79.36;101407.06;1849031;77;21132;-64
2021/09/10 02:45:28;;;;;;;21.48;14.33;;;;;;;9.15;79.32;101408.88;1848938;77;21027;-65
2021/09/10 02:47:57;;;;;;;30.00;18.05;;;;;;;9.15;79.33;101409.30;1848950;77;21465;-63
2021/09/10 02:50:26;;;;;;;24.60;15.70;;;;;;;9.15;79.34;101411.50;1848956;77;21053;-64
2021/09/10 02:52:55;;;;;;;27.15;16.77;;;;;;;9.13;79.31;101405.41;1840685;77;21090;-64
2021/09/10 02:55:24;;;;;;;28.07;16.65;;;;;;;9.12;79.33;101409.39;1829202;78;21054;-63
2021/09/10 02:57:53;;;;;;;26.40;14.55;;;;;;;9.10;79.34;101406.78;1829020;78;21664;-64
2021/09/10 03:00:23;;;;;;;26.48;13.95;;;;;;;9.09;79.33;101410.30;1828956;78;21533;-63
2021/09/10 03:02:53;;;;;;;20.90;10.60;;;;;;;9.10;79.43;101411.19;1829202;78;21501;-64
2021/09/10 03:05:22;;;;;;;17.62;7.80;;;;;;;9.10;79.44;101413.81;1829044;78;21050;-66
2021/09/10 03:07:51;;;;;;;12.55;8.38;;;;;;;9.10;79.53;101417.30;1828941;78;21054;-64
2021/09/10 03:10:20;;;;;;;18.07;9.40;;;;;;;9.09;79.55;101418.18;1828998;78;21477;-64
2021/09/10 03:12:49;;;;;;;21.85;8.55;;;;;;;9.10;79.66;101406.78;1828997;78;21026;-64
2021/09/10 03:15:17;;;;;;;15.23;8.33;;;;;;;9.12;79.68;101409.39;1829019;78;21066;-64
2021/09/10 03:17:46;;;;;;;19.62;6.58;;;;;;;9.13;79.58;101408.05;1829044;78;21042;-64
2021/09/10 03:20:15;;;;;;;12.98;7.45;;;;;;;9.16;79.48;101414.52;1829014;78;21137;-63
2021/09/10 03:22:44;;;;;;;12.60;6.60;;;;;;;9.17;79.43;101414.95;1829178;78;21139;-63
2021/09/10 03:25:13;;;;;;;14.18;7.70;;;;;;;9.20;79.31;101413.58;1829057;78;21066;-64
2021/09/10 03:27:42;;;;;;;16.32;6.25;;;;;;;9.25;79.17;101416.09;1829186;78;21120;-64
2021/09/10 03:30:12;;;;;;;13.20;6.33;;;;;;;9.30;79.16;101415.54;1828986;78;21567;-63
2021/09/10 03:32:42;;;;;;;18.98;5.97;;;;;;;9.36;79.18;101412.76;1828872;78;21498;-64
2021/09/10 03:35:11;;;;;;;15.00;6.97;;;;;;;9.46;79.17;101422.59;1829035;78;21431;-63
2021/09/10 03:37:48;;;;;;;17.62;6.70;;;;;;;9.56;79.00;101416.70;1829094;78;21116;-64
2021/09/10 03:40:25;;;;;;;12.53;5.80;;;;;;;9.76;78.78;101421.47;1825631;78;21075;-63
2021/09/10 03:42:54;;;;;;;14.05;6.58;;;;;;;10.02;78.36;101420.34;1828343;78;21077;-63
2021/09/10 03:45:22;;;;;;;19.27;7.50;;;;;;;10.34;77.90;101412.08;1829086;78;21043;-63
2021/09/10 03:47:54;;;;;;;12.05;7.42;;;;;;;10.64;77.54;101414.75;1829181;78;21066;-63
2021/09/10 03:50:24;;;;;;;11.50;6.15;;;;;;;10.94;77.37;101416.11;1829125;78;21042;-63
2021/09/10 03:52:54;;;;;;;13.20;8.43;;;;;;;11.24;77.09;101414.30;1830430;77;21050;-64
2021/09/10 03:55:23;;;;;;;15.72;9.10;;;;;;;11.54;76.79;101412.92;1848953;77;21098;-64
2021/09/10 03:57:51;;;;;;;16.17;8.40;;;;;;;11.86;76.50;101410.99;1849059;77;21622;-64
2021/09/10 04:00:21;;;;;;;15.55;7.22;;;;;;;12.15;76.00;101413.98;1849100;77;21148;-63
2021/09/10 04:02:51;;;;;;;17.57;8.90;;;;;;;12.34;75.13;101412.91;1849022;77;21144;-64
2021/09/10 04:05:24;;;;;;;20.23;14.07;;;;;;;12.47;74.53;101409.38;1849305;77;21086;-63
2021/09/10 04:07:54;;;;;;;26.45;20.80;;;;;;;12.69;74.38;101410.30;1848920;77;21445;-64
2021/09/10 04:10:23;;;;;;;25.50;21.42;;;;;;;12.94;74.08;101398.78;1848992;77;21042;-64
2021/09/10 04:12:53;;;;;;;33.67;29.87;;;;;;;13.17;73.74;101398.34;1849005;77;21145;-64
2021/09/10 04:15:22;;;;;;;36.90;33.20;;;;;;;13.38;73.20;101396.21;1849005;77;21140;-64
2021/09/10 04:17:51;;;;;;;39.50;34.27;;;;;;;13.57;72.60;101395.46;1849020;77;21152;-64
2021/09/10 04:20:20;;;;;;;40.20;35.83;;;;;;;13.79;72.08;101394.96;1849044;77;21070;-65
2021/09/10 04:22:49;;;;;;;42.40;34.83;;;;;;;14.07;71.56;101393.34;1848943;77;21106;-64
2021/09/10 04:25:18;;;;;;;32.42;29.00;;;;;;;14.34;71.14;101394.38;1848996;77;21124;-64
2021/09/10 04:27:47;;;;;;;34.58;30.88;;;;;;;14.58;70.36;101383.16;1849014;77;21074;-64
2021/09/10 04:30:16;;;;;;;39.13;35.05;;;;;;;14.83;69.79;101384.70;1849133;77;21493;-64
2021/09/10 04:32:44;;;;;;;40.88;36.98;;;;;;;15.04;68.84;101378.84;1849004;77;21066;-64
2021/09/10 04:35:14;;;;;;;31.02;27.80;;;;;;;15.31;68.23;101381.97;1849070;77;21145;-64
2021/09/10 04:37:43;;;;;;;27.73;24.70;;;;;;;15.58;67.63;101390.83;1848994;77;21493;-64
2021/09/10 04:40:13;;;;;;;20.82;18.25;;;;;;;15.81;66.72;101385.26;1849014;77;21478;-64
2021/09/10 04:42:42;;;;;;;27.95;16.55;;;;;;;16.05;66.20;101381.44;1849057;77;21117;-64
2021/09/10 04:45:12;;;;;;;15.65;9.40;;;;;;;16.29;65.88;101381.95;1849031;77;21112;-64
2021/09/10 04:47:40;;;;;;;19.67;9.78;;;;;;;16.62;65.13;101385.93;1848904;77;21040;-64
2021/09/10 04:50:10;;;;;;;18.35;10.48;;;;;;;16.81;64.12;101376.95;1849063;77;21094;-64
2021/09/10 04:52:38;;;;;;;11.95;7.53;;;;;;;17.16;64.29;101375.00;1849012;77;21096;-64
2021/09/10 04:55:09;;;;;;;15.55;7.70;;;;;;;17.58;63.60;101376.15;1848949;77;21082;-64
2021/09/10 04:57:38;;;;;;;13.93;7.67;;;;;;;17.90;63.01;101366.75;1849135;77;21027;-64
2021/09/10 05:00:08;;;;;;;14.63;8.48;;;;;;;18.26;62.46;101364.12;1848910;77;21164;-65
2021/09/10 05:02:42;;;;;;;16.32;8.18;;;;;;;18.69;61.70;101361.47;1849104;77;21054;-65
2021/09/10 05:05:08;;;;;;;12.15;6.50;;;;;;;19.06;61.01;101357.80;1846766;77;21090;-64
2021/09/10 05:07:37;;;;;;;14.00;6.20;;;;;;;19.36;60.69;101358.08;1849000;77;21058;-64
2021/09/10 05:10:06;;;;;;;13.93;5.42;;;;;;;19.70;59.84;101358.48;1849109;77;21050;-64
2021/09/10 05:12:35;;;;;;;12.05;4.95;;;;;;;20.01;58.88;101355.47;1848897;77;21050;-65
2021/09/10 05:15:06;;;;;;;13.85;5.30;;;;;;;20.30;57.80;101356.58;1849014;77;21046;-64
2021/09/10 05:17:34;;;;;;;17.30;4.50;;;;;;;20.58;57.05;101351.48;1849112;77;21054;-64
2021/09/10 05:20:03;;;;;;;19.95;5.25;;;;;;;20.75;55.97;101344.94;1848986;77;21054;-64
2021/09/10 05:22:32;;;;;;;14.38;4.42;;;;;;;20.92;55.19;101348.22;1849001;77;21055;-64
2021/09/10 05:25:01;;;;;;;17.12;4.95;;;;;;;21.17;54.99;101353.94;1848871;77;21082;-65
2021/09/10 05:27:30;;;;;;;18.82;5.67;;;;;;;21.27;54.00;101348.77;1848917;77;21517;-64
2021/09/10 05:29:59;;;;;;;14.63;4.90;;;;;;;21.37;53.77;101350.62;1848967;77;21117;-65
2021/09/10 05:32:27;;;;;;;16.32;4.87;;;;;;;21.38;52.70;101348.33;1849035;77;21153;-64
2021/09/10 05:34:56;;;;;;;25.37;6.30;;;;;;;21.49;52.85;101347.55;1849004;77;21112;-64
2021/09/10 05:37:25;;;;;;;18.35;5.22;;;;;;;21.69;52.21;101339.80;1848930;77;21063;-64
2021/09/10 05:39:53;;;;;;;16.95;4.92;;;;;;;21.97;52.10;101344.77;1848921;77;21474;-64
2021/09/10 05:42:22;;;;;;;15.80;4.97;;;;;;;22.07;51.70;101349.41;1848999;77;21045;-64
2021/09/10 05:44:50;;;;;;;14.83;4.78;;;;;;;22.12;50.92;101344.05;1848972;77;21136;-64
2021/09/10 05:47:19;;;;;;;14.50;4.72;;;;;;;22.32;50.62;101341.17;1849077;77;21062;-65
2021/09/10 05:49:48;;;;;;;11.53;4.70;;;;;;;22.57;50.19;101339.70;1848950;77;21079;-64
2021/09/10 05:52:17;;;;;;;10.23;3.92;;;;;;;22.90;50.00;101342.81;1848846;77;21124;-64
2021/09/10 05:54:45;;;;;;;9.83;4.20;;;;;;;23.16;49.05;101341.20;1844336;77;21082;-64
2021/09/10 05:57:16;;;;;;;11.28;4.33;;;;;;;23.26;48.28;101338.13;1829067;78;21481;-64
2021/09/10 05:59:44;;;;;;;10.10;3.72;;;;;;;23.37;48.38;101335.39;1828777;78;21054;-64
2021/09/10 06:02:13;;;;;;;11.08;3.47;;;;;;;23.48;48.17;101335.83;1828969;78;21566;-64
2021/09/10 06:04:42;;;;;;;9.03;3.80;;;;;;;23.42;47.85;101340.36;1828915;78;21070;-65
2021/09/10 06:07:11;;;;;;;11.75;4.28;;;;;;;23.67;47.59;101329.73;1828970;78;21576;-65
2021/09/10 06:09:39;;;;;;;8.45;3.77;;;;;;;24.04;47.12;101333.33;1829131;78;21097;-64
2021/09/10 06:12:08;;;;;;;6.22;3.45;;;;;;;24.34;46.69;101337.00;1829070;78;21030;-64
2021/09/10 06:14:37;;;;;;;5.85;3.10;;;;;;;24.26;45.71;101333.64;1828974;78;21132;-64
2021/09/10 06:17:06;;;;;;;7.40;3.62;;;;;;;24.06;45.39;101336.73;1828918;78;21058;-65
2021/09/10 06:19:34;;;;;;;8.60;4.22;;;;;;;23.94;45.39;101335.09;1828882;78;21532;-64
2021/09/10 06:22:04;;;;;;;7.22;3.40;;;;;;;23.98;45.29;101336.56;1829022;78;21054;-64
2021/09/10 06:24:32;;;;;;;8.40;4.45;;;;;;;23.88;45.51;101336.48;1828986;78;21078;-64
2021/09/10 06:27:01;;;;;;;13.53;4.05;;;;;;;23.94;45.63;101327.02;1829020;78;21148;-64
2021/09/10 06:29:30;;;;;;;7.53;3.80;;;;;;;24.02;45.62;101327.23;1829129;78;21158;-64
2021/09/10 06:31:58;;;;;;;8.40;3.40;;;;;;;24.34;45.58;101323.05;1828895;78;21133;-65
2021/09/10 06:34:27;;;;;;;8.53;3.30;;;;;;;24.77;45.29;101321.08;1829249;77;21094;-63
2021/09/10 06:36:56;;;;;;;6.95;3.75;;;;;;;24.97;44.65;101321.50;1829060;78;21168;-63
2021/09/10 06:39:25;;;;;;;7.12;4.00;;;;;;;24.98;43.81;101315.61;1829069;78;21558;-63
2021/09/10 06:41:56;;;;;;;12.82;4.45;;;;;;;25.03;43.83;101319.58;1829142;78;21054;-63
2021/09/10 06:44:24;;;;;;;8.98;3.70;;;;;;;25.35;43.80;101319.83;1828917;78;21055;-64
2021/09/10 06:46:53;;;;;;;16.05;5.15;;;;;;;25.76;43.28;101322.34;1829007;78;21043;-63
2021/09/10 06:49:22;;;;;;;25.90;8.00;;;;;;;25.73;42.84;101324.84;1829046;78;21058;-63
2021/09/10 06:51:50;;;;;;;15.68;6.58;;;;;;;25.89;42.74;101319.33;1829048;78;21051;-63
2021/09/10 06:54:20;;;;;;;9.90;4.00;;;;;;;26.38;42.16;101315.49;1829145;78;21070;-63
2021/09/10 06:56:48;;;;;;;6.83;4.33;;;;;;;26.50;40.97;101317.99;1828901;77;21541;-64
2021/09/10 06:59:19;;;;;;;8.63;4.12;;;;;;;26.41;40.62;101317.54;1829027;78;21074;-63
2021/09/10 07:01:48;;;;;;;7.62;4.08;;;;;;;26.31;40.36;101324.34;1829033;78;21466;-64
2021/09/10 07:04:16;;;;;;;10.48;4.30;;;;;;;26.44;40.45;101323.49;1828985;78;21086;-63
2021/09/10 07:06:45;;;;;;;13.25;4.92;;;;;;;26.62;40.30;101315.98;1828978;78;21125;-63
2021/09/10 07:09:14;;;;;;;6.35;3.37;;;;;;;27.11;40.33;101320.06;1828934;78;21611;-64
2021/09/10 07:11:43;;;;;;;6.65;3.30;;;;;;;27.38;39.63;101326.41;1829155;78;21203;-63
2021/09/10 07:14:12;;;;;;;6.33;3.17;;;;;;;27.64;39.24;101321.03;1829027;78;21070;-63
2021/09/10 07:16:40;;;;;;;6.95;3.65;;;;;;;28.01;38.86;101316.41;1829155;78;21109;-63
2021/09/10 07:19:09;;;;;;;7.60;3.67;;;;;;;27.94;37.71;101322.11;1829026;78;21136;-63
2021/09/10 07:21:38;;;;;;;6.22;3.67;;;;;;;27.74;37.71;101320.95;1828995;78;21567;-63
2021/09/10 07:24:07;;;;;;;8.98;3.50;;;;;;;27.94;38.03;101324.30;1829117;78;21074;-64
2021/09/10 07:26:36;;;;;;;7.00;3.35;;;;;;;27.97;37.98;101324.00;1829135;78;21127;-63
2021/09/10 07:29:05;;;;;;;6.35;3.10;;;;;;;27.93;37.50;101316.38;1828976;78;21149;-63
2021/09/10 07:31:33;;;;;;;8.65;3.72;;;;;;;28.03;37.84;101315.23;1829203;78;21066;-63
2021/09/10 07:34:02;;;;;;;6.33;3.52;;;;;;;28.05;37.50;101313.23;1829007;78;21070;-63
2021/09/10 07:36:30;;;;;;;6.78;4.05;;;;;;;28.11;37.04;101313.09;1829045;78;21102;-63
2021/09/10 07:38:59;;;;;;;10.80;3.92;;;;;;;27.79;37.25;101309.13;1828997;78;21046;-63
2021/09/10 07:41:28;;;;;;;7.40;3.70;;;;;;;27.98;37.56;101311.31;1829007;78;21553;-63
2021/09/10 07:43:57;;;;;;;26.00;7.17;;;;;;;28.56;37.13;101310.60;1829020;78;21066;-63
2021/09/10 07:46:26;;;;;;;11.57;4.80;;;;;;;28.87;36.72;101296.47;1828983;78;21520;-63
2021/09/10 07:48:55;;;;;;;7.05;3.75;;;;;;;29.29;36.40;101292.81;1828838;78;21144;-64
2021/09/10 07:51:23;;;;;;;11.08;4.30;;;;;;;29.44;36.27;101292.98;1829099;78;21156;-63
2021/09/10 07:53:52;;;;;;;9.90;3.37;;;;;;;29.61;35.93;101289.22;1829046;78;21050;-63
2021/09/10 07:56:20;;;;;;;7.58;3.47;;;;;;;29.59;35.36;101295.33;1828959;77;21129;-63
2021/09/10 07:58:49;;;;;;;10.93;3.75;;;;;;;29.46;35.67;101286.88;1829063;78;21047;-63
2021/09/10 08:01:18;;;;;;;10.75;4.00;;;;;;;29.65;35.41;101284.30;1828982;78;21116;-63
2021/09/10 08:03:46;;;;;;;7.33;3.83;;;;;;;29.79;35.21;101289.58;1828979;78;21050;-63
2021/09/10 08:06:15;;;;;;;9.10;3.83;;;;;;;29.82;35.21;101289.20;1829100;78;21113;-63
2021/09/10 08:08:44;;;;;;;13.78;4.53;;;;;;;29.98;35.09;101285.09;1828945;78;21144;-63
2021/09/10 08:11:13;;;;;;;9.35;3.67;;;;;;;30.05;34.52;101284.42;1828968;78;21088;-63
2021/09/10 08:13:42;;;;;;;10.48;3.87;;;;;;;30.17;35.06;101281.64;1828994;78;21153;-63
2021/09/10 08:16:10;;;;;;;12.73;5.62;;;;;;;30.12;34.77;101277.23;1828998;78;21046;-64
2021/09/10 08:18:39;;;;;;;10.28;3.77;;;;;;;29.99;34.45;101279.14;1828946;78;21120;-64
2021/09/10 08:21:07;;;;;;;7.47;4.17;;;;;;;29.99;34.54;101280.02;1829006;78;21477;-63
2021/09/10 08:23:36;;;;;;;15.10;4.58;;;;;;;29.88;34.50;101277.67;1828998;78;21066;-63
2021/09/10 08:26:05;;;;;;;7.58;3.70;;;;;;;30.01;34.46;101276.61;1829115;78;21121;-63
2021/09/10 08:28:33;;;;;;;9.00;4.20;;;;;;;30.01;34.09;101272.54;1829220;78;21513;-65
2021/09/10 08:31:03;;;;;;;9.03;4.30;;;;;;;30.17;34.49;101275.69;1829142;78;21093;-63
2021/09/10 08:33:32;;;;;;;10.78;4.80;;;;;;;30.43;34.33;101271.03;1829225;78;21070;-63
2021/09/10 08:36:01;;;;;;;13.58;4.75;;;;;;;30.55;33.76;101266.90;1829214;78;21058;-63
2021/09/10 08:38:32;;;;;;;9.53;4.40;;;;;;;30.68;33.82;101261.72;1829102;78;21149;-63
2021/09/10 08:41:03;;;;;;;9.98;4.87;;;;;;;31.13;33.56;101265.52;1829085;78;21078;-65
2021/09/10 08:43:32;;;;;;;11.65;4.10;;;;;;;30.98;33.20;101266.80;1829065;78;21062;-64
2021/09/10 08:46:01;;;;;;;13.85;4.65;;;;;;;31.20;33.44;101264.77;1829116;78;21707;-63
2021/09/10 08:48:30;;;;;;;7.75;3.62;;;;;;;31.09;33.28;101261.44;1829081;78;21078;-63
2021/09/10 08:50:59;;;;;;;9.85;4.70;;;;;;;30.72;33.24;101257.61;1829098;78;21046;-63
2021/09/10 08:53:27;;;;;;;10.95;4.80;;;;;;;30.54;33.60;101256.55;1829095;78;21058;-63
2021/09/10 08:55:56;;;;;;;11.03;4.90;;;;;;;30.39;33.68;101255.08;1829010;78;21039;-64
2021/09/10 08:58:25;;;;;;;12.47;4.83;;;;;;;30.09;34.25;101247.73;1845100;77;21102;-64
2021/09/10 09:00:57;;;;;;;8.55;4.42;;;;;;;30.43;34.38;101247.94;1849034;77;21473;-64
2021/09/10 09:03:28;;;;;;;12.95;4.33;;;;;;;31.07;33.98;101252.62;1849067;77;21520;-64
2021/09/10 09:05:57;;;;;;;10.65;4.35;;;;;;;31.18;33.39;101244.03;1849037;77;21051;-63
2021/09/10 09:08:27;;;;;;;8.45;3.47;;;;;;;31.44;33.21;101235.97;1848928;77;21521;-64
2021/09/10 09:10:58;;;;;;;8.60;3.37;;;;;;;31.69;32.71;101231.67;1849022;77;21493;-64
2021/09/10 09:13:35;;;;;;;8.38;3.05;;;;;;;31.50;32.81;101221.67;1849156;77;21488;-63
2021/09/10 09:16:23;;;;;;;12.18;3.40;;;;;;;31.10;32.71;101228.32;1849064;77;21050;-64
2021/09/10 09:18:55;;;;;;;7.70;3.12;;;;;;;30.65;33.17;101232.17;1848916;77;21250;-64
2021/09/10 09:21:26;;;;;;;8.45;3.52;;;;;;;30.88;33.55;101220.48;1848530;77;21480;-64
2021/09/10 09:23:58;;;;;;;7.05;2.77;;;;;;;31.04;33.70;101224.45;1849021;77;21055;-64
2021/09/10 09:26:29;;;;;;;7.93;2.87;;;;;;;31.22;33.44;101215.11;1849280;77;21058;-64
2021/09/10 09:29:07;;;;;;;9.08;2.55;;;;;;;30.99;33.51;101222.80;1849022;77;21120;-64
2021/09/10 09:31:38;;;;;;;9.43;2.87;;;;;;;30.81;33.54;101212.72;1848997;77;21082;-64
2021/09/10 09:34:10;;;;;;;10.65;3.17;;;;;;;30.81;33.80;101216.80;1848971;77;21082;-64
2021/09/10 09:36:53;;;;;;;10.78;2.80;;;;;;;30.83;33.71;101208.77;1848966;77;21031;-63
2021/09/10 09:39:22;;;;;;;10.15;3.05;;;;;;;31.02;33.75;101202.02;1849017;77;21101;-64
2021/09/10 09:41:51;;;;;;;7.25;4.37;;;;;;;31.00;33.79;101206.80;1849072;77;21137;-64
2021/09/10 09:44:20;;;;;;;7.10;2.85;;;;;;;31.08;33.79;101208.59;1848976;77;21517;-63
2021/09/10 09:47:03;;;;;;;9.53;2.83;;;;;;;31.05;33.81;101203.02;1849002;77;21082;-63
2021/09/10 09:49:31;;;;;;;6.90;2.58;;;;;;;31.11;33.93;101200.91;1849108;77;21631;-63
2021/09/10 09:52:03;;;;;;;8.50;2.62;;;;;;;30.92;33.81;101204.16;1848914;77;21066;-64
2021/09/10 09:54:31;;;;;;;6.50;2.77;;;;;;;30.69;33.83;101203.63;1849012;77;21050;-64
2021/09/10 09:57:00;;;;;;;4.35;2.55;;;;;;;30.62;34.20;101201.79;1849035;77;21023;-63
2021/09/10 09:59:32;;;;;;;5.87;2.65;;;;;;;30.46;34.31;101191.90;1830250;77;21075;-63
2021/09/10 10:02:02;;;;;;;5.62;2.47;;;;;;;30.37;34.63;101191.93;1829298;78;21136;-64
2021/09/10 10:04:31;;;;;;;12.53;3.15;;;;;;;30.39;34.75;101189.87;1828976;78;21144;-64
2021/09/10 10:07:02;;;;;;;5.97;3.85;;;;;;;30.27;34.51;101186.36;1829046;78;21128;-64
2021/09/10 10:09:32;;;;;;;11.70;3.42;;;;;;;30.45;34.85;101187.48;1829053;78;21105;-64
2021/09/10 10:12:02;;;;;;;7.22;2.85;;;;;;;30.69;34.88;101184.61;1829175;78;21051;-64
2021/09/10 10:14:43;;;;;;;8.68;2.40;;;;;;;30.65;34.43;101179.70;1829044;78;21070;-63
2021/09/10 10:17:33;;;;;;;7.37;2.87;;;;;;;30.54;34.67;101181.83;1828952;78;21023;-64
2021/09/10 10:20:02;;;;;;;9.58;3.15;;;;;;;30.42;34.33;101185.14;1829080;78;21090;-63
2021/09/10 10:22:42;;;;;;;6.60;2.45;;;;;;;30.45;34.54;101179.33;1829073;78;21497;-64
2021/09/10 10:25:12;;;;;;;11.38;3.27;;;;;;;30.16;34.56;101180.84;1829134;78;21050;-64
2021/09/10 10:27:46;;;;;;;8.33;2.98;;;;;;;29.98;35.08;101174.30;1829075;78;21474;-63
2021/09/10 10:30:21;;;;;;;5.67;2.80;;;;;;;30.35;35.15;101171.42;1829108;78;21075;-63
2021/09/10 10:32:53;;;;;;;9.23;3.00;;;;;;;30.50;34.22;101172.32;1829011;78;21074;-63
2021/09/10 10:35:39;;;;;;;9.53;2.92;;;;;;;30.28;34.28;101166.34;1829157;78;21128;-63
2021/09/10 10:38:10;;;;;;;7.00;3.27;;;;;;;30.08;34.54;101164.58;1829125;78;21054;-64
2021/09/10 10:40:50;;;;;;;7.15;3.10;;;;;;;29.95;34.93;101160.55;1829042;78;21046;-63
2021/09/10 10:43:25;;;;;;;8.30;2.98;;;;;;;29.92;35.08;101162.28;1828690;78;21501;-63
2021/09/10 10:46:10;;;;;;;7.58;2.80;;;;;;;29.88;34.96;101159.59;1829051;78;21548;-63
2021/09/10 10:48:44;;;;;;;7.10;2.80;;;;;;;29.90;34.94;101158.04;1829093;78;21098;-64
2021/09/10 10:51:22;;;;;;;6.33;2.75;;;;;;;29.63;34.92;101158.81;1829034;78;21233;-63
2021/09/10 10:53:56;;;;;;;7.30;2.50;;;;;;;29.34;35.33;101151.27;1829057;78;21046;-63
2021/09/10 10:56:39;;;;;;;6.33;2.92;;;;;;;29.18;35.77;101159.77;1829023;78;21082;-63
2021/09/10 10:59:21;;;;;;;7.55;2.83;;;;;;;29.03;35.52;101154.66;1838206;77;21159;-63
2021/09/10 11:02:22;;;;;;;8.28;3.15;;;;;;;28.92;35.88;101156.37;1847855;77;21141;-63
2021/09/10 11:05:07;;;;;;;5.10;2.75;;;;;;;28.70;35.83;101147.92;1848962;77;21022;-64
2021/09/10 11:07:36;;;;;;;5.50;2.77;;;;;;;28.42;36.55;101146.86;1849085;77;21054;-64
2021/09/10 11:10:18;;;;;;;6.53;2.37;;;;;;;28.28;36.91;101140.73;1849037;77;21047;-63
2021/09/10 11:12:49;;;;;;;156.05;70.35;;;;;;;28.11;36.90;101141.20;1848981;77;21084;-64
2021/09/10 11:15:26;;;;;;;5.80;2.67;;;;;;;27.97;37.13;101136.42;1848769;77;21050;-64
2021/09/10 11:18:12;;;;;;;5.33;2.90;;;;;;;27.87;37.29;101135.18;1849036;77;21084;-63
2021/09/10 11:20:46;;;;;;;6.58;2.95;;;;;;;27.73;37.53;101132.06;1848924;77;21078;-63
2021/09/10 11:23:18;;;;;;;5.00;2.60;;;;;;;27.54;38.05;101129.63;1848953;77;21552;-63
2021/09/10 11:25:52;;;;;;;6.53;2.80;;;;;;;27.37;38.11;101132.75;1848828;77;21058;-64
2021/09/10 11:28:25;;;;;;;4.30;2.30;;;;;;;27.13;38.54;101130.69;1848911;77;21113;-64
2021/09/10 11:30:54;;;;;;;6.58;3.10;;;;;;;26.93;38.89;101124.15;1849014;77;21051;-63
2021/09/10 11:33:23;;;;;;;8.48;2.75;;;;;;;26.62;39.59;101121.03;1849045;77;21489;-63
2021/09/10 11:35:54;;;;;;;7.87;2.55;;;;;;;26.37;40.04;101122.13;1849042;77;21055;-63